Strona główna
METAR-TAF:

METAR-TAF

Lotnisko :

Port lotniczy São Tomé

São Tomé, Wyspy Świętego Tomasza i Książęca

Szerokość geograficzna: 00-23N, Długość geograficzna: 006-43E, wysokość: 8 m

Aktualna obserwacja pogody

Raport powstał 3 godziny i 5 minut temu, godzina 15:00 UTC
Wiatr 12 kt od południowo-południowy wschód
Temperatura 29°C
Wilgotność 62%
Ciśnienie 1012 hPa
Widzialność 10 km lub więcej
Mało chmury na wysokości 2000 ft

METAR: FPST 201500Z 16012KT 9999 FEW020 29/21 Q1012 NOSIG

czas: 18:05 (18:05 UTC)


TAF: brakujący

Obserwacja i prognoza pogody dla ponad 4000 lotnisk (raport METAR i TAF).

Dostępne stacje oznaczono żółtymi i czerwonymi punktami na mapie.

Najedź kursorem aby zobaczyć nazwę stacji.

Kliknij aby zobaczyć obserwacje i prognozy pogody.

Aby zmienić mapę: kliknij na zielony przycisk z czarnym krzyżykiem, aby powiększyć; na zielony przycisk z myślnikiem, aby pomniejszyć; na zielone strzałki, aby przejść do map sąsiednich.


METAR-TAF: